Time;durP1;ratioP1;P1;durP2;ratioP2;P2;SDS_P1;SDS_P2;PMS_P1;PMS_P2;Temp;Humidity;BMP_temperature;BMP_pressure;BME280_temperature;BME280_humidity;BME280_pressure;Samples;Min_cycle;Max_cycle;Signal;HPM_P1;HPM_P2
2023/05/26 00:01:09;;;;;;;10.60;3.40;;;;;;;13.20;55.90;98548.88;10497734;28;20041;-70
2023/05/26 00:06:31;;;;;;;7.43;3.20;;;;;;;13.15;55.84;98542.25;10454622;28;20124;-70
2023/05/26 00:11:52;;;;;;;9.50;3.10;;;;;;;13.12;56.03;98548.28;10482882;28;20120;-70
2023/05/26 00:17:13;;;;;;;11.55;4.13;;;;;;;13.06;55.76;98545.06;10482397;28;20120;-70
2023/05/26 00:22:35;;;;;;;9.18;3.75;;;;;;;12.97;56.29;98543.03;10468601;28;20083;-70
2023/05/26 00:27:55;;;;;;;9.02;3.72;;;;;;;12.92;57.15;98541.25;10482398;28;20116;-70
2023/05/26 00:33:16;;;;;;;10.07;3.42;;;;;;;12.91;57.10;98537.72;10468237;28;20562;-70
2023/05/26 00:38:37;;;;;;;9.15;3.70;;;;;;;12.87;57.19;98545.84;10481790;28;20121;-70
2023/05/26 00:43:57;;;;;;;9.75;3.70;;;;;;;12.82;57.40;98542.00;10481761;28;20458;-70
2023/05/26 00:49:18;;;;;;;10.18;3.90;;;;;;;12.77;57.53;98540.25;10481989;28;20116;-70
2023/05/26 00:54:39;;;;;;;9.07;3.83;;;;;;;12.71;57.69;98536.25;10481767;28;20115;-70
2023/05/26 01:00:00;;;;;;;8.75;4.00;;;;;;;12.70;57.66;98537.59;10468057;28;20547;-70
2023/05/26 01:05:21;;;;;;;7.97;3.90;;;;;;;12.63;58.07;98539.22;10467042;28;20131;-70
2023/05/26 01:10:42;;;;;;;8.80;3.95;;;;;;;12.59;58.52;98528.47;10481202;28;20117;-71
2023/05/26 01:16:06;;;;;;;10.68;4.10;;;;;;;12.58;58.75;98527.00;10453374;28;20116;-70
2023/05/26 01:21:27;;;;;;;9.93;4.25;;;;;;;12.53;58.79;98524.50;10459203;28;20136;-70
2023/05/26 01:26:57;;;;;;;6.45;3.47;;;;;;;12.49;59.06;98524.94;10474935;28;20119;-70
2023/05/26 01:32:18;;;;;;;10.07;3.95;;;;;;;12.44;58.95;98523.16;10460977;28;20171;-70
2023/05/26 01:37:41;;;;;;;7.68;3.47;;;;;;;12.40;59.53;98522.88;10503206;28;20040;-70
2023/05/26 01:43:07;;;;;;;10.70;4.28;;;;;;;12.37;59.54;98531.72;10460453;28;20131;-70
2023/05/26 01:48:29;;;;;;;10.82;4.03;;;;;;;12.33;59.68;98518.88;10474247;28;20040;-70
2023/05/26 01:53:51;;;;;;;10.57;4.05;;;;;;;12.27;60.37;98521.25;10473707;28;20124;-70
2023/05/26 01:59:12;;;;;;;9.38;4.85;;;;;;;12.26;60.54;98519.78;10459854;28;20115;-70
2023/05/26 02:04:34;;;;;;;9.52;4.57;;;;;;;12.20;60.51;98507.41;10473628;28;20128;-70
2023/05/26 02:09:55;;;;;;;10.82;3.58;;;;;;;12.19;60.97;98517.13;10472968;28;20115;-70
2023/05/26 02:15:16;;;;;;;9.55;4.38;;;;;;;12.17;61.20;98520.53;10501985;28;20115;-70
2023/05/26 02:20:36;;;;;;;8.60;3.78;;;;;;;12.12;61.18;98513.13;10486518;28;20120;-70
2023/05/26 02:25:58;;;;;;;11.90;4.40;;;;;;;12.08;61.28;98517.72;10458965;28;20530;-70
2023/05/26 02:31:18;;;;;;;8.95;4.18;;;;;;;12.00;61.72;98524.19;10471071;28;20131;-70
2023/05/26 02:36:39;;;;;;;7.80;3.85;;;;;;;11.94;61.89;98514.59;10471992;28;20530;-70
2023/05/26 02:42:01;;;;;;;11.43;4.25;;;;;;;11.90;61.92;98512.22;10458127;28;20044;-70
2023/05/26 02:47:23;;;;;;;13.27;4.30;;;;;;;11.88;62.29;98512.09;10458090;28;20469;-70
2023/05/26 02:52:45;;;;;;;9.25;4.35;;;;;;;11.85;62.43;98509.72;10485315;28;20040;-70
2023/05/26 02:58:05;;;;;;;12.77;4.93;;;;;;;11.83;62.91;98512.38;10484879;28;20474;-70
2023/05/26 03:03:26;;;;;;;8.13;4.35;;;;;;;11.83;63.00;98507.50;10456766;28;20570;-70
2023/05/26 03:08:46;;;;;;;7.82;4.07;;;;;;;11.82;62.93;98511.63;10470420;28;20049;-70
2023/05/26 03:14:07;;;;;;;13.18;5.13;;;;;;;11.83;63.03;98512.38;10470479;28;20041;-70
2023/05/26 03:19:28;;;;;;;11.98;4.18;;;;;;;11.87;63.25;98505.03;10456605;28;20111;-70
2023/05/26 03:24:50;;;;;;;8.35;4.40;;;;;;;11.90;63.51;98508.69;10470028;28;20510;-70
2023/05/26 03:30:13;;;;;;;10.10;4.90;;;;;;;11.97;63.40;98507.84;10470152;28;20159;-70
2023/05/26 03:35:36;;;;;;;10.73;4.13;;;;;;;12.05;63.56;98502.81;10456345;28;20577;-70
2023/05/26 03:40:58;;;;;;;10.55;4.97;;;;;;;12.16;63.64;98510.66;10455937;28;20116;-71
2023/05/26 03:46:19;;;;;;;7.45;4.30;;;;;;;12.30;63.21;98519.34;10497907;28;20044;-70
2023/05/26 03:51:40;;;;;;;12.65;4.50;;;;;;;12.36;63.30;98516.25;10483152;28;20502;-70
2023/05/26 03:57:02;;;;;;;8.75;4.35;;;;;;;12.48;63.55;98517.13;10468961;28;20148;-70
2023/05/26 04:02:23;;;;;;;9.20;4.47;;;;;;;12.66;63.35;98526.84;10482666;28;20080;-70
2023/05/26 04:07:46;;;;;;;8.52;4.35;;;;;;;12.85;63.08;98526.81;10454899;28;20111;-70
2023/05/26 04:13:06;;;;;;;8.95;4.53;;;;;;;13.05;63.00;98526.78;10497064;28;20072;-70
2023/05/26 04:18:27;;;;;;;9.63;4.60;;;;;;;13.22;62.77;98521.00;10468270;28;20221;-70
2023/05/26 04:23:51;;;;;;;11.85;4.72;;;;;;;13.48;62.64;98529.75;10455133;28;20071;-70
2023/05/26 04:29:13;;;;;;;11.43;4.45;;;;;;;13.69;62.29;98532.59;10468760;28;20044;-70
2023/05/26 04:34:44;;;;;;;9.77;4.25;;;;;;;13.93;61.96;98537.06;10481918;28;20163;-70
2023/05/26 04:40:09;;;;;;;10.45;4.75;;;;;;;14.15;61.63;98542.66;10469701;28;20120;-71
2023/05/26 04:45:30;;;;;;;11.50;5.30;;;;;;;14.47;61.05;98532.84;10497101;28;20116;-70
2023/05/26 04:50:53;;;;;;;7.20;3.80;;;;;;;14.79;60.69;98534.22;10467673;28;20120;-70
2023/05/26 04:56:13;;;;;;;8.88;4.38;;;;;;;15.18;59.56;98534.53;10487195;28;20460;-70
2023/05/26 05:01:40;;;;;;;10.48;5.32;;;;;;;15.33;58.84;98550.19;10477162;28;20076;-70
2023/05/26 05:07:06;;;;;;;7.25;4.55;;;;;;;15.64;58.04;98542.31;10489992;28;20116;-70
2023/05/26 05:12:27;;;;;;;8.82;4.47;;;;;;;15.95;56.65;98546.94;10475124;28;20068;-70
2023/05/26 05:17:49;;;;;;;10.75;4.75;;;;;;;16.35;56.39;98548.56;10474778;28;20466;-70
2023/05/26 05:23:11;;;;;;;8.95;3.95;;;;;;;16.67;55.11;98566.59;10488612;28;20106;-71
2023/05/26 05:28:31;;;;;;;10.27;4.10;;;;;;;17.21;54.48;98576.66;10474605;28;20455;-70
2023/05/26 05:34:01;;;;;;;13.70;4.82;;;;;;;17.65;53.19;98571.94;10475323;28;20086;-71
2023/05/26 05:39:22;;;;;;;12.23;4.15;;;;;;;18.16;52.75;98580.28;10487999;28;20076;-70
2023/05/26 05:44:43;;;;;;;7.95;4.10;;;;;;;18.84;51.71;98573.78;10459762;28;20415;-71
2023/05/26 05:50:05;;;;;;;10.95;4.20;;;;;;;19.37;50.48;98571.31;10487536;28;20040;-70
2023/05/26 05:55:29;;;;;;;9.13;4.35;;;;;;;19.78;48.81;98580.94;10473823;28;20120;-70
2023/05/26 06:00:51;;;;;;;10.38;4.18;;;;;;;19.76;47.56;98580.84;10487080;28;20127;-70
2023/05/26 06:06:13;;;;;;;14.13;4.25;;;;;;;20.07;46.58;98580.81;10459304;28;20588;-71
2023/05/26 06:11:33;;;;;;;10.48;4.28;;;;;;;20.32;45.48;98593.22;10486640;28;20128;-70
2023/05/26 06:16:54;;;;;;;13.70;4.22;;;;;;;20.73;44.51;98595.66;10458761;28;20114;-70
2023/05/26 06:22:26;;;;;;;10.90;4.38;;;;;;;20.85;43.67;98596.91;10472808;28;20127;-70
2023/05/26 06:27:48;;;;;;;12.02;5.13;;;;;;;21.14;43.12;98598.75;10472516;28;20036;-70
2023/05/26 06:33:09;;;;;;;8.55;4.40;;;;;;;21.92;42.05;98599.59;10471895;28;20064;-70
2023/05/26 06:38:30;;;;;;;7.43;4.22;;;;;;;21.67;41.54;98595.13;10471796;28;20464;-71
2023/05/26 06:43:55;;;;;;;10.25;4.07;;;;;;;22.57;41.19;98604.72;10485452;28;20520;-70
2023/05/26 06:49:17;;;;;;;11.40;5.57;;;;;;;22.87;38.58;98598.59;10471363;28;20040;-70
2023/05/26 06:54:39;;;;;;;8.27;4.28;;;;;;;22.83;39.06;98604.16;10457613;28;20049;-70
2023/05/26 07:00:00;;;;;;;8.98;3.70;;;;;;;23.48;38.70;98597.69;10470397;28;20068;-72
2023/05/26 07:05:21;;;;;;;8.98;3.97;;;;;;;23.22;37.67;98600.44;10484270;28;20060;-70
2023/05/26 07:10:43;;;;;;;8.18;4.30;;;;;;;23.59;38.28;98599.47;10457019;28;20041;-70
2023/05/26 07:16:05;;;;;;;10.68;4.05;;;;;;;23.85;37.25;98590.97;10456439;28;20498;-70
2023/05/26 07:21:27;;;;;;;9.70;4.32;;;;;;;23.90;37.55;98595.34;10470094;28;20048;-70
2023/05/26 07:26:50;;;;;;;10.52;5.18;;;;;;;24.74;36.59;98589.03;10484210;28;20051;-71
2023/05/26 07:32:12;;;;;;;11.82;3.85;;;;;;;25.13;36.63;98599.28;10469521;28;20071;-71
2023/05/26 07:37:33;;;;;;;9.73;4.10;;;;;;;25.53;34.49;98595.91;10469342;28;20052;-71
2023/05/26 07:42:53;;;;;;;12.15;4.40;;;;;;;26.22;35.10;98605.91;10483136;28;20076;-71
2023/05/26 07:48:14;;;;;;;9.95;4.78;;;;;;;26.22;32.92;98603.06;10483159;28;20044;-71
2023/05/26 07:53:36;;;;;;;8.93;3.80;;;;;;;25.89;33.70;98602.41;10482690;28;20047;-70
2023/05/26 07:58:56;;;;;;;9.32;4.18;;;;;;;26.38;34.00;98603.38;10482502;28;20040;-70
2023/05/26 08:04:17;;;;;;;7.65;3.70;;;;;;;27.09;32.37;98598.16;10454941;28;20178;-70
2023/05/26 08:09:38;;;;;;;8.23;3.45;;;;;;;27.32;31.93;98596.38;10468632;28;20482;-71
2023/05/26 08:14:58;;;;;;;9.07;3.97;;;;;;;27.86;30.57;98605.00;10497478;28;20125;-71
2023/05/26 08:20:20;;;;;;;12.07;4.78;;;;;;;27.94;29.40;98605.09;10468438;28;20044;-71
2023/05/26 08:25:42;;;;;;;8.50;3.35;;;;;;;27.14;30.19;98604.69;10454762;28;20572;-70
2023/05/26 08:31:03;;;;;;;8.50;3.78;;;;;;;27.03;29.97;98595.94;10473501;28;20123;-71
2023/05/26 08:36:24;;;;;;;12.60;4.05;;;;;;;26.60;30.29;98591.59;10462699;28;20040;-71
2023/05/26 08:41:51;;;;;;;10.43;3.83;;;;;;;27.55;30.60;98588.78;10490189;28;20052;-71
2023/05/26 08:47:12;;;;;;;8.50;4.20;;;;;;;28.22;28.56;98598.97;10490211;28;20055;-71
2023/05/26 08:52:33;;;;;;;7.28;3.63;;;;;;;28.83;27.42;98595.25;10476054;28;20044;-72
2023/05/26 08:57:55;;;;;;;8.57;3.92;;;;;;;27.92;27.34;98596.47;10475484;28;20482;-71
2023/05/26 09:03:15;;;;;;;;;;;;;;;27.98;28.09;98597.94;10476280;28;20132;-71
2023/05/26 09:08:37;;;;;;;11.68;3.58;;;;;;;27.83;27.58;98609.25;10503590;28;19928;-71
2023/05/26 09:13:58;;;;;;;8.57;3.47;;;;;;;26.17;29.48;98610.13;10488852;28;20489;-71
2023/05/26 09:19:19;;;;;;;8.38;3.80;;;;;;;25.21;30.82;98605.19;10461048;28;20067;-71
2023/05/26 09:24:50;;;;;;;10.57;3.27;;;;;;;25.63;30.92;98604.69;10461296;28;20048;-71
2023/05/26 09:30:11;;;;;;;8.07;3.30;;;;;;;25.88;31.20;98595.25;10474551;28;20302;-70
2023/05/26 09:35:41;;;;;;;11.52;4.07;;;;;;;26.59;28.48;98598.75;10503230;28;20040;-70
2023/05/26 09:41:03;;;;;;;8.43;3.70;;;;;;;24.98;29.84;98597.47;10474202;28;20061;-71
2023/05/26 09:46:23;;;;;;;9.50;3.40;;;;;;;25.11;30.83;98590.69;10487820;28;20036;-71
2023/05/26 09:51:45;;;;;;;7.43;3.30;;;;;;;26.81;30.02;98598.41;10473688;28;20116;-71
2023/05/26 09:57:21;;;;;;;7.65;2.92;;;;;;;28.06;28.54;98598.78;10489766;28;20037;-71
2023/05/26 10:02:42;;;;;;;9.37;3.00;;;;;;;27.91;27.82;98608.66;10473719;28;20052;-70
2023/05/26 10:08:03;;;;;;;4.93;2.63;;;;;;;27.25;28.25;98603.41;10445442;28;20044;-71
2023/05/26 10:13:24;;;;;;;10.75;3.17;;;;;;;27.19;28.39;98594.72;10472725;28;20041;-71
2023/05/26 10:18:45;;;;;;;6.13;2.90;;;;;;;27.07;28.46;98607.44;10501566;28;20044;-71
2023/05/26 10:24:14;;;;;;;8.35;3.00;;;;;;;26.32;28.68;98603.25;10472518;28;20052;-71
2023/05/26 10:29:39;;;;;;;8.07;3.30;;;;;;;25.52;29.88;98603.03;10472899;28;20047;-70
2023/05/26 10:35:00;;;;;;;6.55;3.20;;;;;;;25.45;30.40;98590.72;10472313;28;20056;-71
2023/05/26 10:40:49;;;;;;;7.20;3.47;;;;;;;26.61;30.00;98595.19;10457980;28;20402;-71
2023/05/26 10:46:10;;;;;;;6.13;2.80;;;;;;;27.25;29.02;98589.81;10471476;28;20074;-71
2023/05/26 10:51:36;;;;;;;8.98;3.78;;;;;;;26.90;28.07;98604.97;10483957;28;20041;-71
2023/05/26 10:56:57;;;;;;;7.60;2.97;;;;;;;27.69;28.55;98591.13;10485772;28;20056;-71
2023/05/26 11:02:17;;;;;;;8.80;3.17;;;;;;;28.34;27.06;98598.38;10457179;28;20129;-71
2023/05/26 11:07:38;;;;;;;6.60;2.75;;;;;;;26.92;27.73;98594.28;10470352;28;20441;-71
2023/05/26 11:12:59;;;;;;;11.05;3.45;;;;;;;27.18;28.03;98590.41;10484217;28;20040;-71
2023/05/26 11:18:20;;;;;;;8.73;3.17;;;;;;;27.17;26.75;98586.09;10470203;28;20052;-71
2023/05/26 11:23:41;;;;;;;7.72;3.08;;;;;;;26.49;27.17;98592.84;10469954;28;20055;-71
2023/05/26 11:29:03;;;;;;;5.45;2.90;;;;;;;25.92;27.34;98589.59;10484148;28;20045;-71
2023/05/26 11:34:24;;;;;;;6.95;2.90;;;;;;;25.89;28.13;98593.13;10483534;28;20036;-71
2023/05/26 11:39:45;;;;;;;8.68;2.78;;;;;;;25.91;28.75;98591.00;10455432;28;20037;-71
2023/05/26 11:45:06;;;;;;;7.90;2.72;;;;;;;26.62;27.65;98590.91;10469351;28;20098;-71
2023/05/26 11:50:27;;;;;;;5.72;2.75;;;;;;;26.41;27.60;98592.69;10483304;28;20045;-71
2023/05/26 11:55:49;;;;;;;7.20;2.67;;;;;;;26.49;27.62;98593.56;10483126;28;20044;-71
2023/05/26 12:01:10;;;;;;;7.80;2.70;;;;;;;27.15;26.93;98583.22;10497750;28;20043;-71
2023/05/26 12:06:31;;;;;;;6.15;2.88;;;;;;;28.38;25.54;98574.75;10482360;28;20093;-71
2023/05/26 12:11:57;;;;;;;6.53;2.60;;;;;;;28.88;25.09;98577.34;10455905;28;20044;-71
2023/05/26 12:17:18;;;;;;;7.55;2.88;;;;;;;29.23;24.29;98574.72;10497769;28;20111;-71
2023/05/26 12:22:39;;;;;;;5.75;2.35;;;;;;;29.10;23.61;98568.19;10482524;28;20045;-71
2023/05/26 12:28:00;;;;;;;6.30;2.28;;;;;;;27.94;24.03;98569.94;10468487;28;20048;-71
2023/05/26 12:33:21;;;;;;;3.97;2.30;;;;;;;26.67;25.32;98567.41;10482228;28;20044;-71
2023/05/26 12:38:42;;;;;;;6.03;2.60;;;;;;;27.37;25.23;98563.47;10482208;28;20043;-71
2023/05/26 12:44:03;;;;;;;5.43;2.45;;;;;;;27.62;24.33;98559.50;10468148;28;20045;-71
2023/05/26 12:49:25;;;;;;;5.63;3.00;;;;;;;26.97;25.00;98567.16;10481701;28;20071;-71
2023/05/26 12:54:46;;;;;;;7.10;2.60;;;;;;;27.09;25.67;98561.63;10481126;28;20043;-71
2023/05/26 13:00:07;;;;;;;7.88;2.55;;;;;;;27.41;25.78;98557.81;10496612;28;20540;-71
2023/05/26 13:05:28;;;;;;;6.55;2.45;;;;;;;27.01;25.75;98552.88;10453557;28;20059;-71
2023/05/26 13:10:50;;;;;;;7.55;2.85;;;;;;;26.35;26.28;98561.09;10481466;28;20040;-71
2023/05/26 13:16:12;;;;;;;6.50;2.30;;;;;;;25.25;27.46;98562.44;10499778;28;20478;-71
2023/05/26 13:21:45;;;;;;;7.18;2.47;;;;;;;25.04;28.05;98549.09;10478540;28;20048;-71
2023/05/26 13:27:06;;;;;;;6.90;2.55;;;;;;;25.55;27.65;98562.38;10488409;28;20119;-71
2023/05/26 13:32:27;;;;;;;8.90;2.60;;;;;;;25.34;27.48;98560.47;10488249;28;20050;-71
2023/05/26 13:37:49;;;;;;;6.70;2.73;;;;;;;25.06;27.88;98554.84;10502627;28;20071;-71
2023/05/26 13:43:11;;;;;;;8.17;3.00;;;;;;;25.01;28.53;98550.44;10460037;28;20053;-71
2023/05/26 13:48:33;;;;;;;8.25;3.00;;;;;;;25.13;28.93;98553.59;10487688;28;20066;-71
2023/05/26 13:53:54;;;;;;;8.82;2.67;;;;;;;24.78;28.97;98555.59;10459746;28;20041;-71
2023/05/26 13:59:15;;;;;;;8.32;3.05;;;;;;;24.15;29.48;98568.25;10501758;28;20059;-71
2023/05/26 14:04:36;;;;;;;7.38;2.95;;;;;;;23.96;29.89;98560.59;10487084;28;20044;-71
2023/05/26 14:09:59;;;;;;;5.20;2.63;;;;;;;24.21;30.23;98559.84;10487283;28;20072;-71
2023/05/26 14:15:20;;;;;;;13.63;3.33;;;;;;;24.50;29.95;98546.34;10472164;28;20085;-71
2023/05/26 14:20:42;;;;;;;5.30;2.42;;;;;;;24.84;29.25;98550.06;10501267;28;20091;-71
2023/05/26 14:26:23;;;;;;;7.00;2.83;;;;;;;25.20;28.74;98540.91;10489210;28;20053;-71
2023/05/26 14:31:45;;;;;;;6.55;2.78;;;;;;;24.95;28.02;98544.56;10471945;28;20045;-71
2023/05/26 14:37:07;;;;;;;6.70;2.72;;;;;;;24.73;28.50;98542.66;10486142;28;20036;-72
2023/05/26 14:42:28;;;;;;;6.13;2.50;;;;;;;24.54;28.39;98527.22;10485602;28;20064;-71
2023/05/26 14:47:49;;;;;;;10.38;2.85;;;;;;;24.36;28.24;98528.88;10471640;28;20051;-71
2023/05/26 14:53:10;;;;;;;7.30;2.80;;;;;;;24.25;28.39;98531.44;10471370;28;20509;-71
2023/05/26 14:58:31;;;;;;;6.72;2.58;;;;;;;23.75;28.48;98538.63;10470807;28;20059;-71
2023/05/26 15:03:52;;;;;;;10.82;2.90;;;;;;;23.39;28.67;98539.00;10470880;28;20445;-71
2023/05/26 15:09:16;;;;;;;8.02;2.92;;;;;;;22.90;29.06;98537.53;10484729;28;20036;-70
2023/05/26 15:14:36;;;;;;;8.45;2.58;;;;;;;22.63;29.31;98526.66;10456342;28;20052;-71
2023/05/26 15:19:57;;;;;;;8.00;2.20;;;;;;;22.53;29.70;98524.22;10470233;28;20070;-71
2023/05/26 15:25:19;;;;;;;7.38;2.47;;;;;;;22.51;29.34;98536.25;10470181;28;20075;-71
2023/05/26 15:30:40;;;;;;;7.22;2.97;;;;;;;22.17;30.17;98532.25;10483961;28;20487;-71
2023/05/26 15:36:01;;;;;;;8.43;3.95;;;;;;;22.04;30.34;98533.19;10483572;28;20040;-71
2023/05/26 15:41:22;;;;;;;8.02;2.85;;;;;;;21.99;30.36;98526.63;10483087;28;20040;-71
2023/05/26 15:46:47;;;;;;;9.27;2.53;;;;;;;21.88;30.73;98524.81;10470461;28;20406;-71
2023/05/26 15:52:08;;;;;;;8.20;2.58;;;;;;;21.70;30.79;98530.56;10455611;28;20044;-71
2023/05/26 15:57:30;;;;;;;10.93;3.00;;;;;;;21.72;31.00;98522.13;10456193;28;20040;-71
2023/05/26 16:02:51;;;;;;;10.77;2.70;;;;;;;21.61;30.67;98531.66;10482782;28;20536;-71
2023/05/26 16:08:11;;;;;;;8.20;2.63;;;;;;;21.47;30.58;98526.19;10455033;28;20132;-70
2023/05/26 16:13:32;;;;;;;9.13;2.75;;;;;;;21.35;30.33;98526.47;10482537;28;20064;-70
2023/05/26 16:18:54;;;;;;;8.38;2.42;;;;;;;21.17;30.81;98513.69;10468739;28;20047;-71
2023/05/26 16:24:15;;;;;;;7.28;2.28;;;;;;;21.15;31.15;98514.34;10468941;28;20044;-70
2023/05/26 16:29:35;;;;;;;8.13;2.70;;;;;;;21.20;30.84;98515.94;10454688;28;20040;-71
2023/05/26 16:34:57;;;;;;;5.85;2.50;;;;;;;21.20;30.78;98515.19;10467801;28;20068;-70
2023/05/26 16:40:17;;;;;;;9.68;2.75;;;;;;;21.17;30.65;98514.41;10468097;28;20534;-71
2023/05/26 16:45:38;;;;;;;8.02;2.05;;;;;;;20.88;30.97;98509.75;10454419;28;20490;-71
2023/05/26 16:50:59;;;;;;;6.60;2.00;;;;;;;20.67;30.51;98519.56;10471328;28;20502;-71
2023/05/26 16:56:20;;;;;;;8.20;2.38;;;;;;;20.48;30.78;98520.94;10489815;28;20048;-71
2023/05/26 17:01:41;;;;;;;7.13;2.30;;;;;;;20.41;31.09;98513.50;10489461;28;20052;-71
2023/05/26 17:07:02;;;;;;;6.47;2.10;;;;;;;20.39;31.12;98507.78;10489569;28;20158;-70
2023/05/26 17:12:22;;;;;;;9.88;2.47;;;;;;;20.47;31.50;98504.56;10489167;28;20098;-71
2023/05/26 17:17:43;;;;;;;10.43;2.20;;;;;;;20.42;31.46;98509.31;10489178;28;20040;-70
2023/05/26 17:23:04;;;;;;;7.13;2.42;;;;;;;20.38;31.53;98508.41;10461227;28;20044;-70
2023/05/26 17:28:26;;;;;;;9.10;2.08;;;;;;;20.29;31.79;98504.53;10474765;28;20048;-70
2023/05/26 17:33:47;;;;;;;7.07;1.95;;;;;;;20.02;32.39;98506.25;10474713;28;20116;-70
2023/05/26 17:39:09;;;;;;;6.28;2.03;;;;;;;19.75;32.32;98511.41;10488075;28;20045;-71
2023/05/26 17:44:30;;;;;;;9.95;2.05;;;;;;;19.59;32.66;98512.19;10488264;28;20071;-71
2023/05/26 17:49:51;;;;;;;8.20;2.10;;;;;;;19.38;33.22;98510.50;10460259;28;20095;-70
2023/05/26 17:55:11;;;;;;;10.38;2.33;;;;;;;19.27;32.95;98516.34;10473665;28;20041;-71
2023/05/26 18:00:33;;;;;;;10.38;2.08;;;;;;;19.10;33.28;98514.84;10473368;28;20066;-70
2023/05/26 18:05:54;;;;;;;7.22;2.15;;;;;;;18.96;33.67;98528.34;10459658;28;20059;-70
2023/05/26 18:11:15;;;;;;;8.80;1.98;;;;;;;18.83;33.80;98527.78;10473980;28;20036;-70
2023/05/26 18:16:36;;;;;;;7.40;2.05;;;;;;;18.67;34.04;98537.59;10473065;28;20594;-71
2023/05/26 18:21:56;;;;;;;8.35;2.03;;;;;;;18.51;34.21;98543.88;10472951;28;20043;-71
2023/05/26 18:27:17;;;;;;;6.53;2.00;;;;;;;18.24;34.71;98546.78;10472562;28;20052;-70
2023/05/26 18:32:38;;;;;;;9.10;2.25;;;;;;;18.01;34.89;98551.28;10472318;28;20056;-70
2023/05/26 18:37:59;;;;;;;7.82;2.28;;;;;;;17.81;34.77;98549.50;10500964;28;20047;-71
2023/05/26 18:43:20;;;;;;;6.80;2.65;;;;;;;17.58;35.07;98553.25;10471940;28;20041;-71
2023/05/26 18:48:41;;;;;;;12.07;2.70;;;;;;;17.42;35.40;98565.13;10457834;28;20064;-71
2023/05/26 18:54:02;;;;;;;9.13;2.25;;;;;;;17.21;35.42;98564.66;10500173;28;20048;-71
2023/05/26 18:59:22;;;;;;;7.47;2.55;;;;;;;17.04;35.70;98574.31;10471256;28;20047;-71
2023/05/26 19:04:43;;;;;;;8.90;2.70;;;;;;;16.84;35.63;98569.00;10470488;28;20076;-71
2023/05/26 19:10:04;;;;;;;10.00;2.50;;;;;;;16.68;35.87;98579.34;10470785;28;20116;-70
2023/05/26 19:15:27;;;;;;;8.40;2.47;;;;;;;16.54;36.20;98584.19;10498553;28;20072;-70
2023/05/26 19:20:48;;;;;;;12.77;2.90;;;;;;;16.37;36.44;98587.41;10484285;28;20068;-70
2023/05/26 19:26:08;;;;;;;7.93;2.78;;;;;;;16.22;36.46;98597.84;10456440;28;20045;-70
2023/05/26 19:31:29;;;;;;;8.40;2.42;;;;;;;16.09;36.77;98597.72;10483690;28;20067;-70
2023/05/26 19:36:51;;;;;;;8.65;2.15;;;;;;;15.96;36.94;98594.19;10469995;28;20120;-69
2023/05/26 19:42:12;;;;;;;7.75;2.30;;;;;;;15.78;37.18;98595.19;10469588;28;20068;-70
2023/05/26 19:47:33;;;;;;;8.23;2.00;;;;;;;15.63;37.36;98587.94;10469572;28;20570;-70
2023/05/26 19:52:54;;;;;;;7.50;2.40;;;;;;;15.49;37.59;98598.31;10468977;28;20124;-70
2023/05/26 19:58:15;;;;;;;7.65;2.35;;;;;;;15.33;37.82;98598.03;10483124;28;20040;-70
2023/05/26 20:03:36;;;;;;;9.18;2.78;;;;;;;15.17;38.21;98604.13;10497605;28;20183;-70
2023/05/26 20:08:57;;;;;;;7.32;2.63;;;;;;;15.04;38.50;98613.09;10468657;28;20072;-70
2023/05/26 20:14:17;;;;;;;7.40;2.45;;;;;;;14.94;38.97;98614.53;10497620;28;20150;-69
2023/05/26 20:19:38;;;;;;;9.95;2.60;;;;;;;14.82;39.27;98620.84;10482310;28;20116;-70
2023/05/26 20:25:19;;;;;;;13.15;2.78;;;;;;;14.71;39.90;98629.97;10485240;28;20171;-70
2023/05/26 20:30:39;;;;;;;9.15;2.75;;;;;;;14.63;39.98;98625.88;10482438;28;20140;-70
2023/05/26 20:36:00;;;;;;;6.93;2.13;;;;;;;14.54;40.17;98630.97;10468311;28;20559;-70
2023/05/26 20:41:26;;;;;;;9.15;2.35;;;;;;;14.45;40.58;98639.47;10497574;28;20071;-70
2023/05/26 20:46:47;;;;;;;9.57;2.40;;;;;;;14.36;40.73;98638.16;10468170;28;20094;-70
2023/05/26 20:52:08;;;;;;;7.53;2.38;;;;;;;14.27;40.94;98641.75;10482009;28;20071;-70
2023/05/26 20:57:29;;;;;;;10.10;2.15;;;;;;;14.22;41.19;98646.38;10481828;28;20137;-69
2023/05/26 21:02:51;;;;;;;11.48;2.83;;;;;;;14.18;41.36;98650.97;10468584;28;20084;-70
2023/05/26 21:08:12;;;;;;;11.20;2.63;;;;;;;14.14;41.75;98656.31;10481391;28;20070;-70
2023/05/26 21:13:36;;;;;;;9.90;2.28;;;;;;;14.02;41.87;98665.38;10481905;28;20127;-70
2023/05/26 21:18:57;;;;;;;10.07;2.70;;;;;;;13.98;42.13;98667.91;10467779;28;20075;-70
2023/05/26 21:24:18;;;;;;;9.98;2.30;;;;;;;13.91;42.25;98663.22;10481054;28;20183;-70
2023/05/26 21:29:39;;;;;;;9.63;2.60;;;;;;;13.88;42.35;98672.06;10453695;28;20047;-70
2023/05/26 21:35:00;;;;;;;10.98;2.92;;;;;;;13.85;42.31;98676.81;10481090;28;20124;-70
2023/05/26 21:40:21;;;;;;;9.80;2.47;;;;;;;13.80;42.50;98671.50;10474442;28;20068;-70
2023/05/26 21:45:44;;;;;;;12.48;4.50;;;;;;;13.77;43.71;98679.06;10488420;28;20056;-70
2023/05/26 21:51:05;;;;;;;6.85;2.63;;;;;;;13.70;43.00;98689.13;10474255;28;20120;-70
2023/05/26 21:56:25;;;;;;;9.98;2.42;;;;;;;13.66;43.12;98693.72;10487756;28;20082;-70
2023/05/26 22:01:46;;;;;;;11.00;2.75;;;;;;;13.56;43.21;98699.34;10473533;28;20127;-70
2023/05/26 22:07:08;;;;;;;10.52;2.53;;;;;;;13.48;43.31;98700.81;10473668;28;20064;-70
2023/05/26 22:12:28;;;;;;;6.07;2.35;;;;;;;13.44;43.84;98699.22;10473132;28;20115;-70
2023/05/26 22:17:49;;;;;;;9.60;2.38;;;;;;;13.37;44.00;98696.56;10487064;28;20612;-70
2023/05/26 22:23:10;;;;;;;9.80;2.50;;;;;;;13.27;43.98;98704.97;10473012;28;20115;-70
2023/05/26 22:28:30;;;;;;;11.95;2.50;;;;;;;13.18;43.90;98697.28;10472702;28;20064;-70
2023/05/26 22:33:51;;;;;;;9.82;2.58;;;;;;;13.16;44.34;98699.94;10458869;28;20116;-70
2023/05/26 22:39:11;;;;;;;10.32;2.60;;;;;;;13.09;44.32;98701.56;10486254;28;20091;-69
2023/05/26 22:44:32;;;;;;;10.00;2.42;;;;;;;13.07;44.72;98714.69;10472416;28;20071;-70
2023/05/26 22:49:54;;;;;;;8.70;2.30;;;;;;;12.98;44.86;98718.97;10484793;28;20040;-70
2023/05/26 22:55:15;;;;;;;6.90;2.17;;;;;;;12.92;44.91;98714.97;10471537;28;20517;-70
2023/05/26 23:00:36;;;;;;;9.02;2.40;;;;;;;12.88;45.14;98721.03;10471687;28;20075;-70
2023/05/26 23:05:57;;;;;;;10.18;2.28;;;;;;;12.81;45.28;98716.28;10499775;28;20125;-70
2023/05/26 23:11:18;;;;;;;8.70;2.72;;;;;;;12.80;45.31;98720.44;10485157;28;20116;-70
2023/05/26 23:16:38;;;;;;;9.07;2.20;;;;;;;12.79;45.28;98725.28;10470767;28;20143;-70
2023/05/26 23:21:59;;;;;;;9.60;2.28;;;;;;;12.68;45.27;98730.72;10470777;28;20063;-70
2023/05/26 23:27:20;;;;;;;8.65;2.42;;;;;;;12.71;45.57;98730.28;10470259;28;20361;-70
2023/05/26 23:32:40;;;;;;;9.93;2.38;;;;;;;12.66;45.53;98734.13;10484272;28;20040;-70
2023/05/26 23:38:01;;;;;;;9.63;2.33;;;;;;;12.65;45.87;98738.25;10470093;28;20068;-70
2023/05/26 23:43:22;;;;;;;5.50;1.88;;;;;;;12.68;45.75;98742.66;10469523;28;20112;-70
2023/05/26 23:48:42;;;;;;;7.72;2.10;;;;;;;12.66;45.93;98736.94;10498583;28;20063;-70
2023/05/26 23:54:03;;;;;;;9.05;2.00;;;;;;;12.67;45.94;98741.19;10483404;28;20123;-70
2023/05/26 23:59:24;;;;;;;8.65;2.55;;;;;;;12.59;45.87;98730.13;10498014;28;20044;-70
